createdAt,value
2019-04-20T00:01:45.405Z,58.80
2019-04-20T00:04:20.675Z,59.10
2019-04-20T00:06:48.374Z,60.20
2019-04-20T00:09:24.061Z,59.30
2019-04-20T00:11:56.502Z,59.30
2019-04-20T00:14:24.019Z,59.00
2019-04-20T00:16:50.575Z,59.00
2019-04-20T00:19:26.150Z,59.00
2019-04-20T00:21:58.575Z,59.30
2019-04-20T00:24:35.385Z,59.90
2019-04-20T00:27:25.748Z,60.30
2019-04-20T00:29:51.071Z,61.20
2019-04-20T00:32:14.582Z,61.40
2019-04-20T00:34:39.844Z,61.70
2019-04-20T00:37:06.990Z,61.60
2019-04-20T00:39:38.349Z,62.20
2019-04-20T00:42:11.246Z,63.00
2019-04-20T00:44:42.167Z,63.20
2019-04-20T00:47:21.871Z,63.30
2019-04-20T00:49:52.328Z,63.30
2019-04-20T00:52:27.425Z,63.30
2019-04-20T00:54:47.352Z,63.30
2019-04-20T00:57:24.697Z,63.20
2019-04-20T01:00:04.684Z,64.10
2019-04-20T01:02:32.715Z,66.10
2019-04-20T01:05:04.205Z,66.90
2019-04-20T01:07:37.374Z,66.70
2019-04-20T01:10:09.121Z,67.00
2019-04-20T01:12:41.022Z,66.40
2019-04-20T01:15:16.869Z,66.20
2019-04-20T01:17:41.480Z,66.60
2019-04-20T01:20:10.873Z,67.40
2019-04-20T01:22:48.399Z,69.20
2019-04-20T01:25:19.557Z,68.30
2019-04-20T01:28:06.646Z,68.90
2019-04-20T01:30:24.893Z,69.30
2019-04-20T01:33:07.816Z,69.30
2019-04-20T01:35:44.111Z,69.60
2019-04-20T01:38:16.651Z,71.80
2019-04-20T01:40:29.580Z,71.70
2019-04-20T01:42:59.415Z,71.60
2019-04-20T01:45:34.132Z,71.50
2019-04-20T01:48:02.868Z,71.50
2019-04-20T01:50:34.946Z,71.40
2019-04-20T01:53:12.368Z,71.40
2019-04-20T01:55:49.374Z,71.30
2019-04-20T01:58:33.746Z,71.40
2019-04-20T02:00:48.081Z,71.40
2019-04-20T02:03:39.466Z,71.40
2019-04-20T02:06:16.778Z,71.50
2019-04-20T02:08:42.188Z,73.80
2019-04-20T02:11:18.713Z,74.40
2019-04-20T02:13:47.987Z,74.60
2019-04-20T02:16:22.989Z,74.20
2019-04-20T02:19:03.027Z,75.40
2019-04-20T02:21:28.678Z,74.70
2019-04-20T02:23:51.506Z,75.80
2019-04-20T02:26:16.287Z,77.20
2019-04-20T02:29:14.502Z,78.30
2019-04-20T02:32:04.690Z,79.00
2019-04-20T02:34:26.135Z,79.20
2019-04-20T02:42:03.874Z,80.70
2019-04-20T02:44:30.589Z,81.50
2019-04-20T02:49:35.422Z,82.20
2019-04-20T02:57:15.010Z,83.80
2019-04-20T03:01:55.362Z,85.30
2019-04-20T03:04:20.546Z,85.30
2019-04-20T03:06:54.800Z,86.60
2019-04-20T03:09:32.833Z,87.80
2019-04-20T03:12:04.905Z,88.60
2019-04-20T03:14:26.573Z,89.70
2019-04-20T03:17:08.179Z,90.40
2019-04-20T03:19:23.353Z,91.00
2019-04-20T03:22:05.240Z,91.60
2019-04-20T03:24:37.592Z,92.30
2019-04-20T03:26:59.896Z,92.80
2019-04-20T03:29:46.893Z,92.70
2019-04-20T03:32:49.987Z,92.70
2019-04-20T03:37:34.589Z,92.70
2019-04-20T03:39:52.975Z,92.70
2019-04-20T03:42:07.540Z,92.70
2019-04-20T03:44:37.956Z,92.70
2019-04-20T03:47:11.563Z,92.70
2019-04-20T03:49:59.651Z,92.80
2019-04-20T03:52:31.347Z,93.10
2019-04-20T03:55:07.612Z,92.70
2019-04-20T03:57:42.177Z,92.70
2019-04-20T04:00:24.991Z,92.80
2019-04-20T04:03:08.375Z,92.70
2019-04-20T04:05:33.977Z,92.70
2019-04-20T04:07:52.409Z,92.70
2019-04-20T04:10:31.650Z,92.80
2019-04-20T04:13:11.795Z,92.70
2019-04-20T04:15:48.261Z,92.70
2019-04-20T04:18:21.858Z,91.80
2019-04-20T04:20:58.714Z,91.40
2019-04-20T04:23:40.418Z,91.10
2019-04-20T04:26:08.616Z,90.50
2019-04-20T04:28:42.292Z,90.10
2019-04-20T04:31:12.794Z,88.70
2019-04-20T04:36:15.280Z,88.10
2019-04-20T04:38:48.762Z,88.20
2019-04-20T04:41:35.472Z,88.10
2019-04-20T04:43:47.360Z,88.30
2019-04-20T04:46:01.778Z,88.50
2019-04-20T04:48:35.564Z,88.00
2019-04-20T04:51:10.424Z,88.30
2019-04-20T04:53:44.203Z,88.50
2019-04-20T04:56:07.300Z,89.00
2019-04-20T04:58:36.173Z,88.90
2019-04-20T05:01:14.541Z,88.80
2019-04-20T05:04:02.900Z,88.70
2019-04-20T05:06:37.462Z,89.00
2019-04-20T05:08:51.387Z,88.60
2019-04-20T05:11:19.635Z,87.90
2019-04-20T05:13:58.500Z,87.30
2019-04-20T05:16:43.229Z,86.90
2019-04-20T05:19:17.352Z,86.70
2019-04-20T05:21:55.216Z,85.80
2019-04-20T05:24:29.249Z,84.90
2019-04-20T05:27:07.221Z,84.40
2019-04-20T05:29:22.513Z,83.60
2019-04-20T05:31:53.723Z,82.30
2019-04-20T05:34:38.974Z,81.50
2019-04-20T05:37:17.595Z,80.00
2019-04-20T05:39:38.496Z,77.80
2019-04-20T05:42:16.196Z,74.70
2019-04-20T05:44:46.183Z,72.30
2019-04-20T05:47:11.057Z,72.60
2019-04-20T05:49:45.323Z,71.50
2019-04-20T05:52:31.067Z,69.90
2019-04-20T05:54:53.524Z,69.20
2019-04-20T05:57:25.247Z,68.90
2019-04-20T05:59:56.204Z,68.80
2019-04-20T06:02:30.604Z,67.80
2019-04-20T06:07:25.259Z,65.50
2019-04-20T06:10:00.242Z,66.60
2019-04-20T06:12:31.689Z,67.00
2019-04-20T06:15:02.692Z,64.20
2019-04-20T06:17:39.715Z,64.40
2019-04-20T06:20:12.612Z,64.70
2019-04-20T06:22:41.435Z,62.80
2019-04-20T06:25:33.490Z,61.50
2019-04-20T06:28:02.853Z,61.10
2019-04-20T06:30:14.079Z,61.30
2019-04-20T06:33:38.657Z,61.30
2019-04-20T06:38:48.254Z,59.20
2019-04-20T06:41:10.599Z,60.10
2019-04-20T06:43:40.857Z,59.00
2019-04-20T06:46:12.936Z,58.10
2019-04-20T06:48:40.196Z,56.30
2019-04-20T06:51:01.822Z,54.80
2019-04-20T06:53:46.554Z,55.10
2019-04-20T06:56:15.689Z,56.30
2019-04-20T07:01:10.558Z,55.50
2019-04-20T07:04:19.031Z,55.40
2019-04-20T07:06:29.338Z,55.00
2019-04-20T07:08:57.314Z,54.90
2019-04-20T07:11:23.471Z,55.00
2019-04-20T07:13:42.822Z,55.50
2019-04-20T07:16:34.863Z,55.40
2019-04-20T07:19:15.355Z,56.20
2019-04-20T07:22:06.971Z,55.30
2019-04-20T07:24:25.516Z,55.00
2019-04-20T07:26:55.565Z,55.10
2019-04-20T07:29:26.072Z,53.70
2019-04-20T07:31:48.675Z,53.90
2019-04-20T07:34:28.048Z,52.30
2019-04-20T07:37:21.680Z,52.30
2019-04-20T07:39:32.867Z,51.10
2019-04-20T07:42:08.179Z,51.20
2019-04-20T07:44:43.984Z,49.80
2019-04-20T07:47:07.675Z,49.10
2019-04-20T07:49:36.874Z,49.50
2019-04-20T07:51:46.085Z,49.80
2019-04-20T07:54:48.610Z,50.20
2019-04-20T07:57:04.014Z,48.30
2019-04-20T07:59:27.642Z,47.40
2019-04-20T08:02:35.519Z,46.30
2019-04-20T08:04:59.432Z,42.90
2019-04-20T08:07:14.524Z,44.30
2019-04-20T08:09:51.293Z,44.00
2019-04-20T08:12:51.787Z,42.80
2019-04-20T08:15:21.851Z,41.70
2019-04-20T08:17:52.538Z,42.70
2019-04-20T08:20:17.322Z,41.70
2019-04-20T08:22:47.741Z,41.90
2019-04-20T08:25:08.240Z,41.10
2019-04-20T08:27:48.690Z,40.70
2019-04-20T08:30:41.309Z,40.30
2019-04-20T08:33:20.843Z,39.30
2019-04-20T08:35:58.482Z,38.70
2019-04-20T08:38:56.252Z,38.10
2019-04-20T08:40:53.530Z,37.40
2019-04-20T08:43:37.998Z,37.20
2019-04-20T08:45:58.751Z,36.60
2019-04-20T08:48:32.909Z,36.20
2019-04-20T08:51:03.604Z,37.20
2019-04-20T08:53:36.322Z,37.90
2019-04-20T08:56:00.254Z,36.90
2019-04-20T08:58:17.976Z,37.30
2019-04-20T09:00:53.630Z,36.60
2019-04-20T09:03:26.644Z,36.00
2019-04-20T09:05:57.762Z,36.20
2019-04-20T09:08:29.526Z,34.90
2019-04-20T09:11:10.274Z,36.60
2019-04-20T09:13:34.264Z,34.80
2019-04-20T09:15:57.779Z,33.70
2019-04-20T09:18:43.277Z,33.70
2019-04-20T09:21:13.981Z,33.80
2019-04-20T09:23:52.210Z,33.50
2019-04-20T09:26:29.760Z,33.00
2019-04-20T09:28:56.865Z,33.30
2019-04-20T09:31:33.180Z,31.70
2019-04-20T09:34:12.419Z,32.40
2019-04-20T09:36:51.357Z,32.50
2019-04-20T09:39:22.460Z,30.30
2019-04-20T09:42:00.722Z,30.20
2019-04-20T09:44:30.467Z,32.20
2019-04-20T09:47:00.438Z,29.70
2019-04-20T09:49:42.546Z,28.90
2019-04-20T09:52:17.035Z,28.90
2019-04-20T09:54:52.847Z,28.90
2019-04-20T09:57:27.601Z,28.90
2019-04-20T09:59:55.419Z,28.90
2019-04-20T10:02:15.709Z,29.10
2019-04-20T10:04:41.682Z,29.10
2019-04-20T10:07:14.257Z,29.10
2019-04-20T10:09:44.572Z,29.10
2019-04-20T10:12:13.575Z,29.10
2019-04-20T10:14:42.725Z,29.10
2019-04-20T10:17:13.688Z,28.60
2019-04-20T10:19:44.511Z,29.20
2019-04-20T10:22:13.131Z,29.20
2019-04-20T10:24:51.827Z,27.90
2019-04-20T10:27:20.957Z,26.90
2019-04-20T10:29:51.348Z,27.40
2019-04-20T10:32:25.045Z,26.90
2019-04-20T10:34:52.834Z,27.60
2019-04-20T10:37:24.200Z,27.40
2019-04-20T10:39:58.435Z,25.70
2019-04-20T10:42:28.105Z,26.40
2019-04-20T10:45:00.713Z,26.20
2019-04-20T10:47:30.825Z,26.90
2019-04-20T10:50:01.069Z,25.50
2019-04-20T10:52:33.957Z,24.90
2019-04-20T10:55:02.919Z,24.40
2019-04-20T10:57:31.537Z,25.30
2019-04-20T11:00:01.591Z,24.70
2019-04-20T11:02:32.133Z,24.60
2019-04-20T11:05:00.749Z,25.80
2019-04-20T11:07:32.531Z,24.30
2019-04-20T11:10:13.367Z,25.90
2019-04-20T11:12:35.886Z,25.00
2019-04-20T11:15:08.111Z,26.70
2019-04-20T11:17:39.475Z,25.60
2019-04-20T11:20:09.651Z,27.10
2019-04-20T11:22:38.335Z,24.40
2019-04-20T11:25:10.343Z,25.20
2019-04-20T11:27:38.987Z,24.50
2019-04-20T11:30:10.340Z,24.80
2019-04-20T11:32:40.103Z,24.30
2019-04-20T11:35:19.989Z,23.40
2019-04-20T11:37:40.683Z,23.50
2019-04-20T11:40:10.769Z,23.90
2019-04-20T11:42:41.653Z,24.90
2019-04-20T11:45:10.984Z,23.20
2019-04-20T11:47:40.291Z,24.80
2019-04-20T11:50:09.521Z,23.90
2019-04-20T11:52:43.851Z,23.00
2019-04-20T11:55:10.504Z,22.80
2019-04-20T11:57:43.150Z,23.50
2019-04-20T12:00:23.473Z,24.10
2019-04-20T12:03:11.156Z,23.20
2019-04-20T12:05:40.800Z,23.70
2019-04-20T12:08:07.244Z,24.20
2019-04-20T12:10:37.207Z,22.80
2019-04-20T12:13:07.767Z,23.70
2019-04-20T12:15:38.631Z,22.80
2019-04-20T12:18:09.582Z,24.10
2019-04-20T12:20:38.951Z,23.30
2019-04-20T12:23:10.254Z,22.30
2019-04-20T12:25:40.854Z,21.90
2019-04-20T12:28:09.649Z,21.80
2019-04-20T12:30:39.615Z,21.40
2019-04-20T12:33:09.462Z,21.50
2019-04-20T12:35:40.321Z,21.40
2019-04-20T12:38:10.492Z,23.80
2019-04-20T12:40:39.950Z,22.90
2019-04-20T12:43:10.978Z,22.70
2019-04-20T12:45:42.056Z,22.70
2019-04-20T12:48:13.620Z,24.00
2019-04-20T12:50:46.068Z,23.10
2019-04-20T12:53:14.894Z,22.90
2019-04-20T12:55:46.549Z,21.40
2019-04-20T12:58:16.615Z,22.40
2019-04-20T13:00:49.597Z,22.30
2019-04-20T13:03:21.443Z,21.60
2019-04-20T13:05:54.379Z,22.40
2019-04-20T13:08:33.284Z,22.80
2019-04-20T13:11:00.407Z,21.90
2019-04-20T13:13:48.484Z,21.30
2019-04-20T13:16:22.625Z,21.10
2019-04-20T13:18:53.046Z,21.40
2019-04-20T13:21:22.869Z,21.10
2019-04-20T13:23:53.174Z,22.30
2019-04-20T13:26:22.644Z,22.00
2019-04-20T13:28:52.931Z,21.70
2019-04-20T13:31:24.081Z,21.70
2019-04-20T13:33:54.939Z,21.60
2019-04-20T13:36:26.746Z,20.70
2019-04-20T13:38:56.404Z,20.80
2019-04-20T13:41:27.717Z,20.70
2019-04-20T13:43:59.275Z,20.90
2019-04-20T13:46:27.159Z,20.70
2019-04-20T13:48:57.197Z,20.90
2019-04-20T13:51:26.574Z,20.50
2019-04-20T13:53:57.270Z,19.90
2019-04-20T13:56:27.745Z,20.00
2019-04-20T13:59:01.814Z,20.40
2019-04-20T14:01:44.605Z,20.70
2019-04-20T14:04:21.468Z,19.70
2019-04-20T14:06:53.230Z,20.70
2019-04-20T14:09:23.552Z,20.00
2019-04-20T14:11:53.561Z,22.10
2019-04-20T14:14:23.474Z,20.80
2019-04-20T14:16:54.799Z,20.70
2019-04-20T14:19:23.588Z,21.50
2019-04-20T14:21:54.250Z,21.10
2019-04-20T14:24:26.705Z,21.40
2019-04-20T14:26:56.887Z,20.80
2019-04-20T14:29:25.693Z,22.20
2019-04-20T14:31:59.877Z,20.70
2019-04-20T14:34:31.100Z,20.10
2019-04-20T14:37:00.251Z,20.80
2019-04-20T14:39:30.227Z,21.20
2019-04-20T14:42:02.310Z,20.60
2019-04-20T14:44:33.932Z,20.60
2019-04-20T14:47:03.631Z,21.10
2019-04-20T14:49:36.693Z,21.10
2019-04-20T14:52:06.380Z,19.90
2019-04-20T14:54:35.192Z,20.80
2019-04-20T14:57:03.791Z,20.00
2019-04-20T14:59:34.010Z,20.70
2019-04-20T15:02:12.863Z,19.30
2019-04-20T15:04:43.310Z,20.10
2019-04-20T15:07:13.341Z,20.10
2019-04-20T15:09:42.770Z,20.10
2019-04-20T15:12:12.956Z,20.30
2019-04-20T15:14:46.845Z,20.10
2019-04-20T15:17:21.748Z,20.40
2019-04-20T15:19:52.109Z,20.70
2019-04-20T15:22:31.669Z,21.20
2019-04-20T15:25:00.354Z,20.90
2019-04-20T15:27:30.381Z,21.50
2019-04-20T15:30:00.176Z,21.20
2019-04-20T15:32:31.347Z,21.20
2019-04-20T15:35:00.689Z,21.80
2019-04-20T15:37:30.933Z,21.30
2019-04-20T15:39:59.629Z,20.80
2019-04-20T15:42:29.570Z,20.70
2019-04-20T15:44:59.103Z,21.00
2019-04-20T15:47:27.985Z,21.90
2019-04-20T15:49:58.397Z,21.00
2019-04-20T15:52:33.587Z,20.60
2019-04-20T15:55:03.080Z,21.70
2019-04-20T15:57:31.686Z,22.00
2019-04-20T16:00:00.591Z,21.80
2019-04-20T16:02:31.570Z,20.60
2019-04-20T16:05:19.625Z,20.60
2019-04-20T16:07:54.889Z,20.30
2019-04-20T16:10:21.319Z,22.10
2019-04-20T16:13:04.829Z,22.10
2019-04-20T16:15:22.075Z,22.90
2019-04-20T16:17:53.247Z,24.90
2019-04-20T16:20:25.042Z,24.20
2019-04-20T16:23:00.665Z,25.30
2019-04-20T16:25:35.223Z,28.10
2019-04-20T16:28:05.622Z,27.10
2019-04-20T16:30:38.002Z,27.90
2019-04-20T16:33:08.347Z,27.80
2019-04-20T16:35:38.288Z,27.70
2019-04-20T16:38:08.704Z,27.70
2019-04-20T16:40:37.775Z,27.70
2019-04-20T16:43:18.010Z,27.60
2019-04-20T16:45:39.146Z,28.50
2019-04-20T16:48:10.532Z,27.60
2019-04-20T16:50:39.044Z,27.50
2019-04-20T16:53:08.778Z,27.50
2019-04-20T16:55:38.899Z,27.40
2019-04-20T16:58:08.136Z,27.40
2019-04-20T17:00:37.695Z,27.40
2019-04-20T17:03:07.029Z,27.40
2019-04-20T17:05:39.106Z,27.20
2019-04-20T17:08:08.957Z,27.20
2019-04-20T17:10:39.206Z,27.20
2019-04-20T17:13:09.309Z,27.20
2019-04-20T17:15:37.903Z,27.20
2019-04-20T17:18:07.623Z,27.10
2019-04-20T17:20:36.823Z,27.00
2019-04-20T17:23:07.372Z,27.00
2019-04-20T17:25:35.863Z,26.90
2019-04-20T17:28:22.738Z,27.90
2019-04-20T17:30:53.118Z,27.70
2019-04-20T17:33:27.892Z,28.00
2019-04-20T17:36:04.431Z,28.60
2019-04-20T17:38:36.114Z,29.10
2019-04-20T17:41:15.649Z,29.10
2019-04-20T17:43:37.111Z,29.70
2019-04-20T17:46:08.150Z,29.70
2019-04-20T17:48:39.935Z,29.90
2019-04-20T17:51:24.527Z,30.00
2019-04-20T17:53:51.128Z,30.20
2019-04-20T17:56:12.258Z,30.40
2019-04-20T17:58:41.527Z,30.70
2019-04-20T18:01:23.009Z,31.00
2019-04-20T18:04:18.730Z,30.90
2019-04-20T18:06:41.680Z,31.60
2019-04-20T18:09:05.336Z,31.40
2019-04-20T18:11:24.347Z,31.80
2019-04-20T18:13:58.896Z,31.70
2019-04-20T18:17:04.216Z,31.60
2019-04-20T18:19:22.922Z,32.00
2019-04-20T18:21:53.732Z,32.30
2019-04-20T18:24:42.332Z,32.50
2019-04-20T18:27:14.216Z,32.60
2019-04-20T18:29:50.358Z,33.30
2019-04-20T18:32:13.849Z,33.10
2019-04-20T18:34:54.131Z,33.20
2019-04-20T18:37:21.224Z,33.50
2019-04-20T18:39:57.383Z,33.30
2019-04-20T18:42:26.976Z,33.30
2019-04-20T18:45:08.930Z,33.80
2019-04-20T18:47:40.584Z,34.30
2019-04-20T18:50:04.495Z,34.40
2019-04-20T18:52:22.033Z,34.40
2019-04-20T18:54:53.634Z,35.80
2019-04-20T18:57:26.059Z,36.00
2019-04-20T18:59:54.808Z,34.80
2019-04-20T19:02:27.399Z,35.00
2019-04-20T19:04:54.533Z,35.40
2019-04-20T19:07:23.763Z,35.80
2019-04-20T19:10:00.395Z,35.90
2019-04-20T19:12:33.271Z,36.10
2019-04-20T19:15:28.003Z,36.30
2019-04-20T19:18:03.028Z,36.40
2019-04-20T19:20:27.004Z,36.60
2019-04-20T19:22:55.804Z,37.00
2019-04-20T19:25:27.375Z,36.90
2019-04-20T19:27:57.759Z,37.40
2019-04-20T19:30:35.333Z,37.40
2019-04-20T19:33:14.932Z,37.70
2019-04-20T19:35:40.567Z,38.00
2019-04-20T19:38:06.398Z,38.00
2019-04-20T19:40:38.586Z,38.40
2019-04-20T19:43:10.942Z,38.40
2019-04-20T19:45:46.655Z,38.50
2019-04-20T19:48:14.607Z,38.80
2019-04-20T19:50:54.645Z,39.10
2019-04-20T19:53:21.193Z,39.50
2019-04-20T19:55:43.832Z,39.30
2019-04-20T19:58:14.028Z,39.70
2019-04-20T20:00:55.328Z,39.90
2019-04-20T20:03:23.907Z,39.80
2019-04-20T20:05:54.731Z,40.00
2019-04-20T20:08:26.035Z,40.30
2019-04-20T20:10:54.803Z,40.20
2019-04-20T20:13:27.371Z,40.40
2019-04-20T20:16:02.275Z,40.30
2019-04-20T20:18:41.352Z,40.30
2019-04-20T20:21:07.331Z,40.20
2019-04-20T20:23:25.804Z,40.20
2019-04-20T20:25:54.850Z,40.30
2019-04-20T20:28:34.555Z,40.40
2019-04-20T20:31:04.439Z,40.50
2019-04-20T20:33:41.114Z,40.60
2019-04-20T20:36:05.567Z,40.40
2019-04-20T20:38:35.810Z,40.40
2019-04-20T20:41:08.979Z,40.60
2019-04-20T20:43:40.673Z,40.60
2019-04-20T20:46:13.258Z,40.60
2019-04-20T20:48:49.980Z,40.50
2019-04-20T20:51:15.197Z,40.70
2019-04-20T20:53:43.921Z,40.60
2019-04-20T20:56:07.923Z,40.90
2019-04-20T20:58:43.843Z,41.00
2019-04-20T21:01:09.660Z,40.90
2019-04-20T21:03:36.539Z,41.10
2019-04-20T21:06:00.880Z,41.30
2019-04-20T21:08:29.450Z,41.30
2019-04-20T21:10:58.038Z,41.40
2019-04-20T21:13:33.352Z,41.40
2019-04-20T21:16:02.931Z,41.40
2019-04-20T21:18:47.277Z,41.50
2019-04-20T21:21:11.735Z,41.60
2019-04-20T21:23:38.894Z,41.60
2019-04-20T21:26:17.000Z,41.60
2019-04-20T21:28:41.951Z,41.60
2019-04-20T21:31:16.379Z,41.80
2019-04-20T21:33:42.783Z,41.60
2019-04-20T21:36:13.466Z,41.80
2019-04-20T21:38:44.338Z,42.10
2019-04-20T21:41:16.502Z,42.10
2019-04-20T21:43:44.673Z,42.20
2019-04-20T21:46:13.996Z,43.60
2019-04-20T21:48:55.910Z,42.90
2019-04-20T21:51:30.079Z,42.90
2019-04-20T21:53:44.317Z,42.90
2019-04-20T21:56:13.176Z,43.40
2019-04-20T21:58:49.696Z,43.70
2019-04-20T22:01:24.285Z,44.00
2019-04-20T22:03:44.742Z,44.20
2019-04-20T22:06:14.207Z,44.40
2019-04-20T22:08:46.871Z,44.60
2019-04-20T22:11:13.585Z,44.80
2019-04-20T22:13:46.396Z,45.20
2019-04-20T22:16:16.697Z,45.30
2019-04-20T22:18:54.034Z,45.60
2019-04-20T22:21:25.454Z,45.80
2019-04-20T22:24:04.235Z,46.20
2019-04-20T22:26:30.281Z,46.10
2019-04-20T22:28:47.965Z,46.40
2019-04-20T22:33:52.386Z,47.30
2019-04-20T22:36:26.062Z,47.50
2019-04-20T22:39:09.574Z,47.20
2019-04-20T22:41:47.934Z,47.10
2019-04-20T22:44:19.349Z,47.10
2019-04-20T22:46:45.749Z,47.00
2019-04-20T22:49:32.970Z,46.90
2019-04-20T22:51:55.573Z,46.80
2019-04-20T22:54:36.446Z,46.70
2019-04-20T22:57:03.335Z,46.70
2019-04-20T22:59:37.453Z,46.60
2019-04-20T23:02:00.557Z,46.70
2019-04-20T23:04:28.732Z,46.60
2019-04-20T23:06:59.175Z,46.60
2019-04-20T23:09:28.726Z,46.60
2019-04-20T23:12:03.553Z,46.50
2019-04-20T23:14:32.126Z,46.40
2019-04-20T23:17:02.010Z,46.40
2019-04-20T23:19:41.662Z,46.40
2019-04-20T23:22:05.339Z,46.40
2019-04-20T23:24:33.205Z,46.30
2019-04-20T23:27:04.402Z,46.50
2019-04-20T23:29:36.440Z,46.30
2019-04-20T23:32:10.347Z,46.20
2019-04-20T23:34:39.011Z,46.20
2019-04-20T23:37:16.057Z,46.10
2019-04-20T23:39:41.594Z,46.10
2019-04-20T23:42:11.175Z,46.00
2019-04-20T23:44:54.329Z,46.00
2019-04-20T23:47:24.106Z,46.00
2019-04-20T23:50:12.292Z,45.90
2019-04-20T23:52:49.715Z,45.90
2019-04-20T23:55:04.039Z,45.90
2019-04-20T23:57:27.859Z,45.90
2019-04-20T23:59:56.467Z,45.90
